Terminal Aerodrome Forecast
Issued by NWS Pendleton, OR

Home | Current Version | Previous Version | Text Only | Print | Product List | Glossary On
Versions: 1 2 3 4 5 6 7 8 9 10 11 12 13 14 15 16 17
000
FTUS46 KPDT 250837 AAB
TAFPDT
TAF AMD
KPDT 250837Z 2509/2606 27011KT P6SM SCT250
     FM251200 24007KT P6SM FEW250
     FM251700 28008G15KT P6SM SCT250
     FM252100 27008G15KT P6SM FEW250=

USA.gov is the U.S. government's official web portal to all federal, state and local government web resources and services.